createdAt,value
2022-10-22T00:00:54.402Z,15.03
2022-10-22T00:03:20.809Z,15.06
2022-10-22T00:05:47.631Z,15.03
2022-10-22T00:08:14.352Z,15.04
2022-10-22T00:10:41.115Z,15.05
2022-10-22T00:13:07.652Z,15.03
2022-10-22T00:15:34.039Z,15.02
2022-10-22T00:18:00.435Z,15.06
2022-10-22T00:20:26.822Z,15.04
2022-10-22T00:22:53.192Z,15.04
2022-10-22T00:25:19.661Z,15.05
2022-10-22T00:27:46.029Z,15.06
2022-10-22T00:30:12.804Z,15.08
2022-10-22T00:32:39.436Z,15.08
2022-10-22T00:35:06.754Z,15.10
2022-10-22T00:37:33.379Z,15.08
2022-10-22T00:39:59.787Z,15.01
2022-10-22T00:42:30.332Z,15.10
2022-10-22T00:45:02.748Z,15.14
2022-10-22T00:47:33.427Z,15.15
2022-10-22T00:50:00.669Z,15.13
2022-10-22T00:52:28.347Z,15.10
2022-10-22T00:54:54.823Z,15.05
2022-10-22T00:57:22.406Z,15.08
2022-10-22T00:59:49.013Z,15.06
2022-10-22T01:02:16.612Z,14.96
2022-10-22T01:04:43.389Z,14.89
2022-10-22T01:07:20.193Z,14.95
2022-10-22T01:10:14.104Z,14.96
2022-10-22T01:12:50.699Z,15.02
2022-10-22T01:15:33.988Z,14.99
2022-10-22T01:18:21.690Z,15.01
2022-10-22T01:21:17.360Z,15.00
2022-10-22T01:23:58.994Z,15.04
2022-10-22T01:26:36.260Z,15.07
2022-10-22T01:29:11.356Z,15.07
2022-10-22T01:31:47.775Z,15.03
2022-10-22T01:34:18.182Z,15.03
2022-10-22T01:36:46.885Z,15.03
2022-10-22T01:39:15.194Z,14.94
2022-10-22T01:41:47.573Z,15.00
2022-10-22T01:44:43.487Z,15.03
2022-10-22T01:47:22.287Z,14.97
2022-10-22T01:49:51.402Z,14.92
2022-10-22T01:52:54.633Z,14.89
2022-10-22T01:55:32.919Z,14.96
2022-10-22T01:58:10.299Z,15.02
2022-10-22T02:00:44.617Z,15.03
2022-10-22T02:03:22.766Z,15.04
2022-10-22T02:05:55.495Z,15.08
2022-10-22T02:08:30.452Z,15.04
2022-10-22T02:10:59.294Z,15.04
2022-10-22T02:13:36.075Z,15.05
2022-10-22T02:16:06.913Z,14.93
2022-10-22T02:18:38.849Z,15.01
2022-10-22T02:23:38.975Z,15.03
2022-10-22T02:26:30.054Z,15.03
2022-10-22T02:29:14.053Z,15.02
2022-10-22T02:31:44.411Z,15.04
2022-10-22T02:34:16.282Z,15.06
2022-10-22T02:36:46.843Z,15.05
2022-10-22T02:41:49.011Z,14.97
2022-10-22T02:44:15.488Z,15.01
2022-10-22T02:46:43.259Z,15.05
2022-10-22T02:49:09.653Z,15.06
2022-10-22T02:51:36.032Z,15.06
2022-10-22T02:54:02.722Z,15.07
2022-10-22T02:56:29.204Z,15.07
2022-10-22T02:58:55.583Z,15.00
2022-10-22T03:01:22.069Z,15.01
2022-10-22T03:03:48.510Z,15.05
2022-10-22T03:06:15.045Z,15.06
2022-10-22T03:08:41.971Z,15.07
2022-10-22T03:11:08.795Z,14.98
2022-10-22T03:13:35.449Z,14.95
2022-10-22T03:16:02.048Z,15.02
2022-10-22T03:18:28.507Z,15.04
2022-10-22T03:21:18.216Z,15.03
2022-10-22T03:23:44.736Z,15.03
2022-10-22T03:26:13.420Z,15.02
2022-10-22T03:28:41.222Z,15.03
2022-10-22T03:31:07.769Z,14.95
2022-10-22T03:33:34.263Z,15.00
2022-10-22T03:36:00.840Z,15.00
2022-10-22T03:38:27.278Z,15.05
2022-10-22T03:40:53.795Z,15.00
2022-10-22T03:43:20.283Z,15.06
2022-10-22T03:45:46.879Z,15.04
2022-10-22T03:48:13.752Z,15.08
2022-10-22T03:50:40.101Z,15.08
2022-10-22T03:53:08.542Z,15.07
2022-10-22T03:55:34.900Z,15.10
2022-10-22T03:58:01.263Z,15.12
2022-10-22T04:00:27.725Z,15.12
2022-10-22T04:02:54.194Z,15.15
2022-10-22T04:05:20.542Z,15.15
2022-10-22T04:07:46.914Z,15.15
2022-10-22T04:10:13.287Z,15.06
2022-10-22T04:12:39.712Z,15.09
2022-10-22T04:15:06.631Z,15.07
2022-10-22T04:17:37.174Z,15.10
2022-10-22T04:20:04.882Z,15.10
2022-10-22T04:22:34.230Z,15.11
2022-10-22T04:25:00.721Z,15.14
2022-10-22T04:27:31.083Z,15.14
2022-10-22T04:29:57.500Z,15.13
2022-10-22T04:32:24.344Z,15.10
2022-10-22T04:34:50.715Z,15.07
2022-10-22T04:37:17.246Z,15.04
2022-10-22T04:39:43.631Z,15.05
2022-10-22T04:42:10.045Z,15.03
2022-10-22T04:44:36.390Z,15.02
2022-10-22T04:47:02.767Z,15.03
2022-10-22T04:49:29.176Z,15.02
2022-10-22T04:51:55.631Z,14.98
2022-10-22T04:54:22.311Z,14.95
2022-10-22T04:56:48.700Z,14.96
2022-10-22T04:59:15.100Z,14.99
2022-10-22T05:01:44.512Z,15.00
2022-10-22T05:04:13.070Z,15.01
2022-10-22T05:06:39.845Z,15.01
2022-10-22T05:09:11.362Z,15.03
2022-10-22T05:11:41.587Z,14.99
2022-10-22T05:14:10.001Z,14.90
2022-10-22T05:16:38.095Z,14.96
2022-10-22T05:19:05.082Z,15.00
2022-10-22T05:21:31.528Z,15.02
2022-10-22T05:23:59.862Z,15.06
2022-10-22T05:26:28.160Z,15.07
2022-10-22T05:28:54.810Z,15.07
2022-10-22T05:31:21.273Z,15.05
2022-10-22T05:33:47.849Z,15.04
2022-10-22T05:36:18.194Z,15.03
2022-10-22T05:38:45.201Z,15.03
2022-10-22T05:41:14.762Z,15.03
2022-10-22T05:43:41.457Z,15.03
2022-10-22T05:46:11.643Z,14.95
2022-10-22T05:48:38.642Z,14.92
2022-10-22T05:51:07.363Z,14.94
2022-10-22T05:53:35.475Z,14.94
2022-10-22T05:56:07.533Z,14.95
2022-10-22T05:58:35.164Z,14.95
2022-10-22T06:01:11.340Z,14.99
2022-10-22T06:03:37.757Z,15.00
2022-10-22T06:06:22.960Z,15.01
2022-10-22T06:08:51.581Z,14.93
2022-10-22T06:11:19.644Z,14.97
2022-10-22T06:13:46.559Z,15.00
2022-10-22T06:16:13.478Z,14.97
2022-10-22T06:18:40.069Z,15.03
2022-10-22T06:21:08.281Z,15.03
2022-10-22T06:23:35.466Z,15.01
2022-10-22T06:26:02.807Z,14.92
2022-10-22T06:28:29.249Z,14.98
2022-10-22T06:30:58.018Z,15.00
2022-10-22T06:33:24.981Z,14.95
2022-10-22T06:35:51.395Z,15.01
2022-10-22T06:38:17.995Z,15.04
2022-10-22T06:40:44.959Z,15.00
2022-10-22T06:43:13.141Z,15.01
2022-10-22T06:45:39.834Z,15.01
2022-10-22T06:48:07.232Z,15.06
2022-10-22T06:50:36.564Z,15.10
2022-10-22T06:53:02.994Z,15.13
2022-10-22T06:55:29.365Z,15.14
2022-10-22T06:57:55.921Z,15.18
2022-10-22T07:00:22.694Z,15.21
2022-10-22T07:02:56.437Z,15.24
2022-10-22T07:05:25.614Z,15.25
2022-10-22T07:07:51.981Z,15.27
2022-10-22T07:10:18.350Z,15.31
2022-10-22T07:12:44.768Z,15.25
2022-10-22T07:15:11.509Z,15.26
2022-10-22T07:17:38.022Z,15.35
2022-10-22T07:20:05.091Z,15.40
2022-10-22T07:22:31.547Z,15.31
2022-10-22T07:24:57.913Z,15.33
2022-10-22T07:27:24.331Z,15.35
2022-10-22T07:29:50.705Z,15.38
2022-10-22T07:32:18.801Z,15.30
2022-10-22T07:34:48.054Z,15.25
2022-10-22T07:37:14.491Z,15.29
2022-10-22T07:39:40.890Z,15.38
2022-10-22T07:42:07.296Z,15.43
2022-10-22T07:44:33.654Z,15.43
2022-10-22T07:47:00.036Z,15.53
2022-10-22T07:49:26.500Z,15.49
2022-10-22T07:51:52.859Z,15.60
2022-10-22T07:54:19.277Z,15.65
2022-10-22T07:56:45.644Z,15.69
2022-10-22T07:59:12.018Z,15.70
2022-10-22T08:01:38.526Z,15.73
2022-10-22T08:04:08.128Z,15.76
2022-10-22T08:06:34.894Z,15.79
2022-10-22T08:09:01.362Z,15.75
2022-10-22T08:11:27.895Z,15.72
2022-10-22T08:13:54.281Z,15.75
2022-10-22T08:16:20.653Z,15.72
2022-10-22T08:18:47.081Z,15.72
2022-10-22T08:21:13.585Z,15.70
2022-10-22T08:23:40.134Z,15.73
2022-10-22T08:26:06.510Z,15.73
2022-10-22T08:28:36.853Z,15.71
2022-10-22T08:31:05.558Z,15.58
2022-10-22T08:33:31.999Z,15.64
2022-10-22T08:35:58.549Z,15.57
2022-10-22T08:38:25.014Z,15.52
2022-10-22T08:41:06.014Z,15.56
2022-10-22T08:43:41.849Z,15.61
2022-10-22T08:46:32.194Z,15.63
2022-10-22T08:49:01.719Z,15.64
2022-10-22T08:51:33.046Z,15.66
2022-10-22T08:54:36.929Z,15.73
2022-10-22T08:57:12.181Z,15.76
2022-10-22T09:00:29.689Z,15.81
2022-10-22T09:03:22.021Z,15.85
2022-10-22T09:05:59.205Z,15.83
2022-10-22T09:08:25.871Z,15.83
2022-10-22T09:11:02.016Z,15.85
2022-10-22T09:13:29.148Z,15.93
2022-10-22T09:16:00.257Z,15.94
2022-10-22T09:18:33.357Z,15.97
2022-10-22T09:21:05.953Z,15.97
2022-10-22T09:23:44.152Z,15.99
2022-10-22T09:26:15.934Z,16.05
2022-10-22T09:28:43.216Z,16.08
2022-10-22T09:31:14.307Z,16.11
2022-10-22T09:33:42.453Z,16.19
2022-10-22T09:36:13.870Z,16.28
2022-10-22T09:38:46.807Z,16.34
2022-10-22T09:41:14.040Z,16.18
2022-10-22T09:43:40.504Z,16.23
2022-10-22T09:46:15.358Z,16.32
2022-10-22T09:48:47.058Z,16.33
2022-10-22T09:51:24.149Z,16.40
2022-10-22T09:53:59.095Z,16.43
2022-10-22T09:56:27.809Z,16.45
2022-10-22T09:58:57.688Z,16.45
2022-10-22T10:01:31.556Z,16.48
2022-10-22T10:04:10.525Z,16.51
2022-10-22T10:06:40.408Z,16.53
2022-10-22T10:09:21.787Z,16.57
2022-10-22T10:12:01.045Z,16.56
2022-10-22T10:14:56.649Z,16.58
2022-10-22T10:17:32.107Z,16.61
2022-10-22T10:20:29.854Z,16.59
2022-10-22T10:23:13.395Z,16.62
2022-10-22T10:25:46.285Z,16.65
2022-10-22T10:28:29.079Z,16.63
2022-10-22T10:31:07.570Z,16.64
2022-10-22T10:34:01.826Z,16.66
2022-10-22T10:36:56.103Z,16.62
2022-10-22T10:39:49.889Z,16.64
2022-10-22T10:42:44.411Z,16.68
2022-10-22T10:45:37.373Z,16.69
2022-10-22T10:48:12.968Z,16.73
2022-10-22T10:50:58.164Z,16.76
2022-10-22T10:54:18.676Z,16.79
2022-10-22T10:56:50.436Z,16.84
2022-10-22T10:59:31.533Z,16.77
2022-10-22T11:02:35.270Z,16.84
2022-10-22T11:05:26.520Z,16.87
2022-10-22T11:08:00.060Z,16.85
2022-10-22T11:10:48.807Z,16.83
2022-10-22T11:13:36.899Z,16.78
2022-10-22T11:16:32.613Z,16.80
2022-10-22T11:19:05.961Z,16.80
2022-10-22T11:21:44.128Z,16.76
2022-10-22T11:24:26.955Z,16.76
2022-10-22T11:27:00.756Z,16.73
2022-10-22T11:29:49.336Z,16.71
2022-10-22T11:32:20.003Z,16.72
2022-10-22T11:34:54.303Z,16.73
2022-10-22T11:37:21.943Z,16.77
2022-10-22T11:39:59.698Z,16.80
2022-10-22T11:42:38.769Z,16.85
2022-10-22T11:45:13.271Z,16.83
2022-10-22T11:48:10.374Z,16.80
2022-10-22T11:50:48.963Z,16.87
2022-10-22T11:53:15.280Z,16.90
2022-10-22T11:55:45.863Z,16.90
2022-10-22T11:58:31.931Z,16.86
2022-10-22T12:01:21.399Z,16.87
2022-10-22T12:03:59.807Z,16.87
2022-10-22T12:06:27.787Z,16.91
2022-10-22T12:08:54.382Z,16.95
2022-10-22T12:11:26.057Z,16.98
2022-10-22T12:14:14.155Z,17.01
2022-10-22T12:17:02.226Z,17.02
2022-10-22T12:19:37.380Z,17.03
2022-10-22T12:22:09.813Z,17.05
2022-10-22T12:24:44.580Z,17.08
2022-10-22T12:27:37.361Z,17.12
2022-10-22T12:30:19.046Z,17.14
2022-10-22T12:32:45.963Z,17.12
2022-10-22T12:35:19.722Z,17.16
2022-10-22T12:37:54.411Z,17.18
2022-10-22T12:40:26.660Z,17.18
2022-10-22T12:42:54.395Z,17.17
2022-10-22T12:45:21.822Z,17.15
2022-10-22T12:47:50.811Z,17.09
2022-10-22T12:50:25.397Z,17.26
2022-10-22T12:52:54.348Z,17.30
2022-10-22T12:55:25.813Z,17.28
2022-10-22T12:57:52.985Z,17.29
2022-10-22T13:00:27.987Z,17.31
2022-10-22T13:02:59.167Z,17.30
2022-10-22T13:05:28.036Z,17.31
2022-10-22T13:08:08.578Z,17.33
2022-10-22T13:10:38.342Z,17.33
2022-10-22T13:13:07.900Z,17.35
2022-10-22T13:15:38.042Z,17.37
2022-10-22T13:18:07.258Z,17.37
2022-10-22T13:20:37.282Z,17.39
2022-10-22T13:23:06.161Z,17.37
2022-10-22T13:25:35.550Z,17.36
2022-10-22T13:28:10.820Z,17.40
2022-10-22T13:30:38.996Z,17.40
2022-10-22T13:33:26.857Z,17.34
2022-10-22T13:35:54.420Z,17.35
2022-10-22T13:38:26.177Z,17.32
2022-10-22T13:40:52.771Z,17.30
2022-10-22T13:43:19.818Z,17.31
2022-10-22T13:45:48.601Z,17.30
2022-10-22T13:48:16.826Z,17.27
2022-10-22T13:50:43.207Z,17.23
2022-10-22T13:53:18.816Z,17.22
2022-10-22T13:55:45.608Z,17.22
2022-10-22T13:58:14.732Z,17.24
2022-10-22T14:00:45.334Z,17.27
2022-10-22T14:03:15.146Z,17.28
2022-10-22T14:05:42.344Z,17.24
2022-10-22T14:08:13.757Z,17.23
2022-10-22T14:10:40.267Z,17.22
2022-10-22T14:13:07.943Z,17.20
2022-10-22T14:15:34.699Z,17.18
2022-10-22T14:18:01.530Z,17.17
2022-10-22T14:20:30.532Z,17.19
2022-10-22T14:23:02.487Z,17.16
2022-10-22T14:25:31.422Z,17.13
2022-10-22T14:27:57.808Z,17.14
2022-10-22T14:30:25.957Z,17.10
2022-10-22T14:32:52.667Z,17.10
2022-10-22T14:35:22.308Z,17.07
2022-10-22T14:37:48.760Z,17.05
2022-10-22T14:40:19.130Z,17.00
2022-10-22T14:42:47.654Z,17.02
2022-10-22T14:45:26.476Z,16.97
2022-10-22T14:47:57.292Z,16.99
2022-10-22T14:50:24.642Z,17.00
2022-10-22T14:52:51.847Z,17.02
2022-10-22T14:55:19.320Z,17.00
2022-10-22T14:57:46.568Z,17.00
2022-10-22T15:00:16.156Z,16.99
2022-10-22T15:02:43.083Z,16.98
2022-10-22T15:05:10.252Z,16.99
2022-10-22T15:07:37.503Z,16.95
2022-10-22T15:10:05.422Z,16.95
2022-10-22T15:12:31.982Z,16.93
2022-10-22T15:14:58.374Z,16.90
2022-10-22T15:17:25.116Z,16.90
2022-10-22T15:19:53.044Z,16.89
2022-10-22T15:22:19.660Z,16.91
2022-10-22T15:24:46.162Z,16.88
2022-10-22T15:27:15.487Z,16.87
2022-10-22T15:29:42.438Z,16.85
2022-10-22T15:32:12.697Z,16.83
2022-10-22T15:34:39.851Z,16.80
2022-10-22T15:37:08.981Z,16.77
2022-10-22T15:39:35.840Z,16.77
2022-10-22T15:42:02.325Z,16.73
2022-10-22T15:44:31.319Z,16.70
2022-10-22T15:46:58.707Z,16.69
2022-10-22T15:49:27.202Z,16.66
2022-10-22T15:51:54.384Z,16.61
2022-10-22T15:54:24.037Z,16.56
2022-10-22T15:56:50.984Z,16.51
2022-10-22T15:59:18.161Z,16.49
2022-10-22T16:01:46.399Z,16.45
2022-10-22T16:04:12.898Z,16.43
2022-10-22T16:06:42.667Z,16.37
2022-10-22T16:09:15.135Z,16.34
2022-10-22T16:11:42.256Z,16.34
2022-10-22T16:14:11.168Z,16.28
2022-10-22T16:16:39.855Z,16.23
2022-10-22T16:19:06.487Z,16.19
2022-10-22T16:21:32.932Z,16.14
2022-10-22T16:24:05.943Z,16.06
2022-10-22T16:26:33.172Z,15.99
2022-10-22T16:28:59.706Z,15.90
2022-10-22T16:31:26.326Z,15.84
2022-10-22T16:33:52.846Z,15.84
2022-10-22T16:36:20.613Z,15.90
2022-10-22T16:38:48.232Z,15.90
2022-10-22T16:41:21.803Z,15.87
2022-10-22T16:43:51.095Z,15.81
2022-10-22T16:46:22.073Z,15.75
2022-10-22T16:48:52.916Z,15.72
2022-10-22T16:51:25.660Z,15.72
2022-10-22T16:53:53.071Z,15.69
2022-10-22T16:56:19.929Z,15.61
2022-10-22T16:58:52.314Z,15.64
2022-10-22T17:01:21.720Z,15.60
2022-10-22T17:03:48.133Z,15.55
2022-10-22T17:06:14.748Z,15.51
2022-10-22T17:08:42.360Z,15.57
2022-10-22T17:11:11.369Z,15.48
2022-10-22T17:13:39.628Z,15.49
2022-10-22T17:16:09.004Z,15.43
2022-10-22T17:18:37.690Z,15.39
2022-10-22T17:21:05.326Z,15.42
2022-10-22T17:23:31.828Z,15.40
2022-10-22T17:26:07.464Z,15.33
2022-10-22T17:28:36.262Z,15.27
2022-10-22T17:31:06.926Z,15.23
2022-10-22T17:33:34.811Z,15.25
2022-10-22T17:36:01.257Z,15.25
2022-10-22T17:38:28.144Z,15.16
2022-10-22T17:40:54.998Z,15.06
2022-10-22T17:43:21.472Z,15.15
2022-10-22T17:45:47.860Z,15.16
2022-10-22T17:48:14.236Z,15.15
2022-10-22T17:50:43.342Z,15.11
2022-10-22T17:53:12.247Z,15.13
2022-10-22T17:55:38.684Z,15.12
2022-10-22T17:58:05.228Z,15.07
2022-10-22T18:00:33.367Z,14.97
2022-10-22T18:03:01.127Z,14.95
2022-10-22T18:05:28.009Z,15.01
2022-10-22T18:07:56.082Z,15.01
2022-10-22T18:10:23.250Z,14.97
2022-10-22T18:12:49.785Z,14.94
2022-10-22T18:15:16.732Z,14.96
2022-10-22T18:17:43.264Z,14.94
2022-10-22T18:20:10.415Z,14.93
2022-10-22T18:22:36.849Z,14.93
2022-10-22T18:25:03.443Z,14.91
2022-10-22T18:27:30.292Z,14.88
2022-10-22T18:29:56.655Z,14.76
2022-10-22T18:32:23.037Z,14.79
2022-10-22T18:34:49.542Z,14.70
2022-10-22T18:37:15.947Z,14.72
2022-10-22T18:39:42.310Z,14.69
2022-10-22T18:42:08.736Z,14.61
2022-10-22T18:44:35.831Z,14.70
2022-10-22T18:47:02.240Z,14.71
2022-10-22T18:49:28.679Z,14.64
2022-10-22T18:51:55.040Z,14.76
2022-10-22T18:54:23.972Z,14.78
2022-10-22T18:56:51.271Z,14.64
2022-10-22T18:59:23.994Z,14.71
2022-10-22T19:01:55.563Z,14.64
2022-10-22T19:04:22.185Z,14.58
2022-10-22T19:06:48.686Z,14.66
2022-10-22T19:09:15.711Z,14.62
2022-10-22T19:11:45.038Z,14.62
2022-10-22T19:14:13.777Z,14.53
2022-10-22T19:16:40.302Z,14.60
2022-10-22T19:19:07.895Z,14.60
2022-10-22T19:21:34.853Z,14.62
2022-10-22T19:24:01.978Z,14.53
2022-10-22T19:26:29.771Z,14.49
2022-10-22T19:28:59.641Z,14.52
2022-10-22T19:31:27.830Z,14.49
2022-10-22T19:33:56.968Z,14.56
2022-10-22T19:36:25.236Z,14.49
2022-10-22T19:38:52.013Z,14.45
2022-10-22T19:41:21.782Z,14.53
2022-10-22T19:43:50.787Z,14.61
2022-10-22T19:46:18.430Z,14.49
2022-10-22T19:51:22.002Z,14.36
2022-10-22T19:53:49.638Z,14.39
2022-10-22T19:56:18.961Z,14.54
2022-10-22T19:58:45.591Z,14.57
2022-10-22T20:01:14.692Z,14.39
2022-10-22T20:03:41.665Z,14.28
2022-10-22T20:06:10.288Z,14.35
2022-10-22T20:08:40.375Z,14.53
2022-10-22T20:11:15.750Z,14.52
2022-10-22T20:13:43.595Z,14.55
2022-10-22T20:16:15.522Z,14.58
2022-10-22T20:18:42.121Z,14.41
2022-10-22T20:21:12.244Z,14.51
2022-10-22T20:23:38.629Z,14.52
2022-10-22T20:26:05.343Z,14.49
2022-10-22T20:28:32.458Z,14.51
2022-10-22T20:30:58.895Z,14.32
2022-10-22T20:33:25.252Z,14.43
2022-10-22T20:35:59.738Z,14.46
2022-10-22T20:38:26.471Z,14.46
2022-10-22T20:41:01.033Z,14.55
2022-10-22T20:43:27.416Z,14.56
2022-10-22T20:45:54.661Z,14.61
2022-10-22T20:48:21.619Z,14.57
2022-10-22T20:50:48.001Z,14.63
2022-10-22T20:53:16.903Z,14.60
2022-10-22T20:55:43.467Z,14.41
2022-10-22T20:58:10.237Z,14.38
2022-10-22T21:00:39.126Z,14.52
2022-10-22T21:03:06.437Z,14.57
2022-10-22T21:05:34.554Z,14.58
2022-10-22T21:08:02.153Z,14.57
2022-10-22T21:10:32.381Z,14.58
2022-10-22T21:12:59.655Z,14.57
2022-10-22T21:15:27.071Z,14.57
2022-10-22T21:17:53.628Z,14.55
2022-10-22T21:20:22.419Z,14.46
2022-10-22T21:22:51.195Z,14.60
2022-10-22T21:25:17.682Z,14.67
2022-10-22T21:27:44.077Z,14.64
2022-10-22T21:30:10.832Z,14.67
2022-10-22T21:32:37.191Z,14.60
2022-10-22T21:35:03.763Z,14.58
2022-10-22T21:37:30.257Z,14.61
2022-10-22T21:39:56.734Z,14.54
2022-10-22T21:42:23.074Z,14.59
2022-10-22T21:44:49.530Z,14.64
2022-10-22T21:47:15.894Z,14.68
2022-10-22T21:49:42.297Z,14.76
2022-10-22T21:52:08.752Z,14.77
2022-10-22T21:54:37.273Z,14.76
2022-10-22T21:57:04.202Z,14.78
2022-10-22T21:59:32.172Z,14.75
2022-10-22T22:02:03.405Z,14.70
2022-10-22T22:04:32.691Z,14.65
2022-10-22T22:06:59.053Z,14.71
2022-10-22T22:09:25.529Z,14.76
2022-10-22T22:11:51.887Z,14.74
2022-10-22T22:14:18.269Z,14.73
2022-10-22T22:16:44.633Z,14.77
2022-10-22T22:19:11.098Z,14.74
2022-10-22T22:21:39.283Z,14.79
2022-10-22T22:24:06.596Z,14.77
2022-10-22T22:26:33.373Z,14.80
2022-10-22T22:29:00.730Z,14.82
2022-10-22T22:31:29.726Z,14.83
2022-10-22T22:34:00.153Z,14.80
2022-10-22T22:36:26.543Z,14.60
2022-10-22T22:38:56.765Z,14.62
2022-10-22T22:41:23.426Z,14.50
2022-10-22T22:43:49.896Z,14.49
2022-10-22T22:46:16.312Z,14.53
2022-10-22T22:48:42.806Z,14.68
2022-10-22T22:51:10.191Z,14.72
2022-10-22T22:53:36.548Z,14.75
2022-10-22T22:56:07.394Z,14.71
2022-10-22T22:58:35.149Z,14.69
2022-10-22T23:01:13.480Z,14.68
2022-10-22T23:03:40.482Z,14.69
2022-10-22T23:06:07.718Z,14.66
2022-10-22T23:08:34.578Z,14.60
2022-10-22T23:11:06.157Z,14.69
2022-10-22T23:13:33.988Z,14.74
2022-10-22T23:16:04.424Z,14.77
2022-10-22T23:18:30.778Z,14.72
2022-10-22T23:20:57.156Z,14.70
2022-10-22T23:23:23.533Z,14.69
2022-10-22T23:25:49.954Z,14.60
2022-10-22T23:28:16.354Z,14.66
2022-10-22T23:30:44.963Z,14.72
2022-10-22T23:33:11.856Z,14.71
2022-10-22T23:35:41.792Z,14.75
2022-10-22T23:38:08.441Z,14.79
2022-10-22T23:40:34.892Z,14.58
2022-10-22T23:43:01.383Z,14.65
2022-10-22T23:45:27.754Z,14.70
2022-10-22T23:47:54.115Z,14.75
2022-10-22T23:50:20.504Z,14.79
2022-10-22T23:52:46.933Z,14.80
2022-10-22T23:55:13.407Z,14.78
2022-10-22T23:57:39.760Z,14.72
